Terminal Aerodrome Forecast
Issued by NWS

Home | Current Version | Previous Version | Text Only | Print | Product List | Glossary On
Versions: 1 2 3 4 5 6 7 8 9 10 11 12 13 14 15
000
FTUS45 KBOI 250614 AAA
TAFBKE
TAF AMD
KBKE 250614Z 2506/2606 13005KT 6SM BR OVC250
      TEMPO 2506/2508 1/2SM FG SCT002
     FM251200 12012KT P6SM OVC250
     FM252100 12020G30KT P6SM BKN080
     FM260300 12015G25KT P6SM BKN080=

USA.gov is the U.S. government's official web portal to all federal, state and local government web resources and services.